createdAt,value
2022-09-15T00:00:49.857Z,972.990
2022-09-15T00:02:50.833Z,973.079
2022-09-15T00:04:50.606Z,973.085
2022-09-15T00:06:50.722Z,973.086
2022-09-15T00:08:50.419Z,973.124
2022-09-15T00:10:50.252Z,973.126
2022-09-15T00:12:50.031Z,973.075
2022-09-15T00:14:49.838Z,973.122
2022-09-15T00:16:50.083Z,973.128
2022-09-15T00:18:50.405Z,973.157
2022-09-15T00:20:50.217Z,973.084
2022-09-15T00:22:50.523Z,973.085
2022-09-15T00:24:50.744Z,973.097
2022-09-15T00:26:49.882Z,973.086
2022-09-15T00:28:50.320Z,973.104
2022-09-15T00:30:51.049Z,973.106
2022-09-15T00:32:50.320Z,973.084
2022-09-15T00:34:49.826Z,973.049
2022-09-15T00:36:50.113Z,973.052
2022-09-15T00:38:49.858Z,973.066
2022-09-15T00:40:49.827Z,973.045
2022-09-15T00:42:50.536Z,973.068
2022-09-15T00:44:50.472Z,973.083
2022-09-15T00:47:19.041Z,973.080
2022-09-15T00:48:50.062Z,973.040
2022-09-15T00:50:49.905Z,973.048
2022-09-15T00:52:50.688Z,973.007
2022-09-15T00:54:50.416Z,972.943
2022-09-15T00:56:50.431Z,972.976
2022-09-15T00:58:50.168Z,972.931
2022-09-15T01:00:50.116Z,972.917
2022-09-15T01:02:50.059Z,972.927
2022-09-15T01:04:58.913Z,972.913
2022-09-15T01:06:50.101Z,972.915
2022-09-15T01:08:50.431Z,972.910
2022-09-15T01:10:50.599Z,972.863
2022-09-15T01:12:50.542Z,972.860
2022-09-15T01:14:50.340Z,972.889
2022-09-15T01:16:50.048Z,972.896
2022-09-15T01:18:50.148Z,972.919
2022-09-15T01:20:50.081Z,972.942
2022-09-15T01:22:50.200Z,972.942
2022-09-15T01:24:50.007Z,972.942
2022-09-15T01:26:50.308Z,972.852
2022-09-15T01:28:50.189Z,972.852
2022-09-15T01:30:49.989Z,972.783
2022-09-15T01:32:49.991Z,972.793
2022-09-15T01:34:50.390Z,972.816
2022-09-15T01:36:50.324Z,972.781
2022-09-15T01:38:50.270Z,972.779
2022-09-15T01:40:50.438Z,972.786
2022-09-15T01:42:50.284Z,972.763
2022-09-15T01:44:49.951Z,972.777
2022-09-15T01:46:50.249Z,972.786
2022-09-15T01:48:50.038Z,972.779
2022-09-15T01:50:50.784Z,972.863
2022-09-15T01:52:50.688Z,972.838
2022-09-15T01:54:50.530Z,972.745
2022-09-15T01:56:49.885Z,972.686
2022-09-15T01:58:49.921Z,972.680
2022-09-15T02:00:50.912Z,972.627
2022-09-15T02:02:50.009Z,972.636
2022-09-15T02:04:50.539Z,972.550
2022-09-15T02:06:49.838Z,972.639
2022-09-15T02:08:50.175Z,972.632
2022-09-15T02:10:50.485Z,972.655
2022-09-15T02:12:50.298Z,972.651
2022-09-15T02:14:50.089Z,972.615
2022-09-15T02:16:50.460Z,972.617
2022-09-15T02:18:50.484Z,972.600
2022-09-15T02:20:50.360Z,972.608
2022-09-15T02:22:50.328Z,972.580
2022-09-15T02:24:50.526Z,972.554
2022-09-15T02:26:50.678Z,972.520
2022-09-15T02:28:50.430Z,972.498
2022-09-15T02:30:50.253Z,972.456
2022-09-15T02:32:50.250Z,972.474
2022-09-15T02:34:50.554Z,972.497
2022-09-15T02:36:49.810Z,972.473
2022-09-15T02:38:50.974Z,972.478
2022-09-15T02:40:50.153Z,972.472
2022-09-15T02:42:50.198Z,972.441
2022-09-15T02:44:49.989Z,972.428
2022-09-15T02:46:49.988Z,972.400
2022-09-15T02:48:49.865Z,972.360
2022-09-15T02:50:49.920Z,972.333
2022-09-15T02:52:50.000Z,972.321
2022-09-15T02:54:50.835Z,972.327
2022-09-15T02:56:50.028Z,972.308
2022-09-15T02:58:49.953Z,972.291
2022-09-15T03:00:49.948Z,972.291
2022-09-15T03:02:49.997Z,972.262
2022-09-15T03:04:50.602Z,972.246
2022-09-15T03:06:50.763Z,972.210
2022-09-15T03:08:50.227Z,972.158
2022-09-15T03:10:50.381Z,972.188
2022-09-15T03:12:50.442Z,972.202
2022-09-15T03:14:50.381Z,972.221
2022-09-15T03:16:50.391Z,972.215
2022-09-15T03:18:50.285Z,972.216
2022-09-15T03:20:50.092Z,972.162
2022-09-15T03:22:49.978Z,972.146
2022-09-15T03:24:49.867Z,972.157
2022-09-15T03:26:50.256Z,972.140
2022-09-15T03:28:50.175Z,972.122
2022-09-15T03:30:49.898Z,972.120
2022-09-15T03:32:49.894Z,972.143
2022-09-15T03:34:51.237Z,972.137
2022-09-15T03:36:50.682Z,972.139
2022-09-15T03:38:50.574Z,972.144
2022-09-15T03:40:49.887Z,972.116
2022-09-15T03:42:49.800Z,972.070
2022-09-15T03:44:49.838Z,972.068
2022-09-15T03:46:49.901Z,972.008
2022-09-15T03:48:50.739Z,972.033
2022-09-15T03:50:50.736Z,972.047
2022-09-15T03:52:50.845Z,971.992
2022-09-15T03:54:50.540Z,971.938
2022-09-15T03:56:49.852Z,971.915
2022-09-15T03:58:49.860Z,971.901
2022-09-15T04:00:49.931Z,971.932
2022-09-15T04:02:50.767Z,971.985
2022-09-15T04:04:49.995Z,971.951
2022-09-15T04:06:50.042Z,972.020
2022-09-15T04:08:49.821Z,971.986
2022-09-15T04:10:50.683Z,971.996
2022-09-15T04:12:50.480Z,972.017
2022-09-15T04:14:50.352Z,971.992
2022-09-15T04:16:50.661Z,971.961
2022-09-15T04:18:50.658Z,972.000
2022-09-15T04:20:50.701Z,971.961
2022-09-15T04:22:50.605Z,971.933
2022-09-15T04:24:50.558Z,971.921
2022-09-15T04:26:49.858Z,971.902
2022-09-15T04:28:49.895Z,971.931
2022-09-15T04:30:50.558Z,971.945
2022-09-15T04:32:50.443Z,971.869
2022-09-15T04:34:50.716Z,971.859
2022-09-15T04:36:50.093Z,971.872
2022-09-15T04:38:49.986Z,971.896
2022-09-15T04:40:50.048Z,971.873
2022-09-15T04:42:50.229Z,971.873
2022-09-15T04:44:50.026Z,971.878
2022-09-15T04:46:50.293Z,971.876
2022-09-15T04:48:50.453Z,971.827
2022-09-15T04:50:50.443Z,971.827
2022-09-15T04:52:50.465Z,971.816
2022-09-15T04:54:50.380Z,971.855
2022-09-15T04:56:50.427Z,971.856
2022-09-15T04:58:50.203Z,971.846
2022-09-15T05:00:50.247Z,971.807
2022-09-15T05:02:50.509Z,971.806
2022-09-15T05:04:50.150Z,971.869
2022-09-15T05:06:50.308Z,971.849
2022-09-15T05:08:50.078Z,971.808
2022-09-15T05:10:49.843Z,971.824
2022-09-15T05:12:50.598Z,971.805
2022-09-15T05:14:50.426Z,971.786
2022-09-15T05:16:50.582Z,971.782
2022-09-15T05:18:50.505Z,971.727
2022-09-15T05:20:50.459Z,971.741
2022-09-15T05:22:50.346Z,971.766
2022-09-15T05:24:50.204Z,971.784
2022-09-15T05:26:50.513Z,971.765
2022-09-15T05:28:50.343Z,971.855
2022-09-15T05:30:50.157Z,971.792
2022-09-15T05:32:50.089Z,971.807
2022-09-15T05:34:50.472Z,971.814
2022-09-15T05:36:50.651Z,971.885
2022-09-15T05:38:50.519Z,971.860
2022-09-15T05:40:50.755Z,971.894
2022-09-15T05:42:50.564Z,971.840
2022-09-15T05:44:50.539Z,971.859
2022-09-15T05:46:50.074Z,971.816
2022-09-15T05:48:50.314Z,971.844
2022-09-15T05:50:50.309Z,971.830
2022-09-15T05:52:50.237Z,971.842
2022-09-15T05:54:50.105Z,971.835
2022-09-15T05:56:50.506Z,971.858
2022-09-15T05:58:50.336Z,971.823
2022-09-15T06:00:50.196Z,971.823
2022-09-15T06:02:50.173Z,971.825
2022-09-15T06:04:50.754Z,971.802
2022-09-15T06:06:50.005Z,971.809
2022-09-15T06:08:59.029Z,971.798
2022-09-15T06:10:49.850Z,971.783
2022-09-15T06:12:50.613Z,971.776
2022-09-15T06:14:50.578Z,971.753
2022-09-15T06:16:50.659Z,971.694
2022-09-15T06:18:50.609Z,971.750
2022-09-15T06:20:49.802Z,971.663
2022-09-15T06:22:50.644Z,971.658
2022-09-15T06:24:50.576Z,971.677
2022-09-15T06:26:50.737Z,971.638
2022-09-15T06:28:50.507Z,971.686
2022-09-15T06:30:50.295Z,971.691
2022-09-15T06:32:50.688Z,971.755
2022-09-15T06:34:49.928Z,971.798
2022-09-15T06:36:50.072Z,971.902
2022-09-15T06:38:50.108Z,971.805
2022-09-15T06:40:49.936Z,971.819
2022-09-15T06:42:50.772Z,971.828
2022-09-15T06:44:50.768Z,971.830
2022-09-15T06:46:49.883Z,971.889
2022-09-15T06:48:50.090Z,971.976
2022-09-15T06:50:49.826Z,167694.333
2022-09-15T06:52:50.671Z,167694.333
2022-09-15T06:54:50.746Z,167694.333
2022-09-15T06:56:50.781Z,167694.333
2022-09-15T06:58:50.297Z,167694.333
2022-09-15T07:00:49.838Z,167694.333
2022-09-15T07:02:51.139Z,167694.333
2022-09-15T07:04:50.112Z,167694.333
2022-09-15T07:06:50.223Z,167694.333
2022-09-15T07:08:50.082Z,167694.333
2022-09-15T07:10:49.852Z,167694.333
2022-09-15T07:12:50.619Z,167694.333
2022-09-15T07:14:50.440Z,167694.333
2022-09-15T07:16:50.192Z,167694.333
2022-09-15T07:18:49.833Z,167694.333
2022-09-15T07:20:50.670Z,167694.333
2022-09-15T07:22:50.143Z,167694.333
2022-09-15T07:24:50.700Z,167694.333
2022-09-15T07:26:50.519Z,167694.333
2022-09-15T07:28:50.171Z,167694.333
2022-09-15T07:30:49.841Z,167694.333
2022-09-15T07:32:50.308Z,167694.333
2022-09-15T07:34:50.242Z,167694.333
2022-09-15T07:36:50.287Z,167694.333
2022-09-15T07:38:49.894Z,167694.333
2022-09-15T07:40:50.581Z,167694.333
2022-09-15T07:42:50.042Z,167694.333
2022-09-15T07:44:50.598Z,167694.333
2022-09-15T07:46:50.711Z,167694.333
2022-09-15T07:48:50.255Z,167694.333
2022-09-15T07:50:49.970Z,167694.333
2022-09-15T07:52:50.511Z,167694.333
2022-09-15T07:54:49.991Z,167694.333
2022-09-15T07:56:49.957Z,167694.333
2022-09-15T07:58:50.655Z,167694.333
2022-09-15T08:00:50.778Z,167694.333
2022-09-15T08:02:50.409Z,167694.333
2022-09-15T08:04:50.477Z,167694.333
2022-09-15T08:06:50.634Z,167694.333
2022-09-15T08:08:50.150Z,167694.333
2022-09-15T08:10:49.855Z,167694.333
2022-09-15T08:12:50.516Z,167694.333
2022-09-15T08:14:50.055Z,167694.333
2022-09-15T08:16:49.988Z,167694.333
2022-09-15T08:18:50.515Z,167694.333
2022-09-15T08:20:50.059Z,167694.333
2022-09-15T08:22:50.736Z,167694.333
2022-09-15T08:24:50.333Z,167694.333
2022-09-15T08:26:50.327Z,167694.333
2022-09-15T08:28:49.818Z,167694.333
2022-09-15T08:30:50.670Z,167694.333
2022-09-15T08:32:50.537Z,167694.333
2022-09-15T08:34:50.428Z,167694.333
2022-09-15T08:36:50.463Z,167694.333
2022-09-15T08:38:50.001Z,167694.333
2022-09-15T08:40:50.537Z,167694.333
2022-09-15T08:42:50.206Z,167694.333
2022-09-15T08:44:49.919Z,167694.333
2022-09-15T08:46:50.125Z,167694.333
2022-09-15T08:48:49.950Z,167694.333
2022-09-15T08:50:50.552Z,167694.333
2022-09-15T08:52:50.103Z,167694.333
2022-09-15T08:54:50.615Z,167694.333
2022-09-15T08:56:50.723Z,167694.333
2022-09-15T08:58:50.342Z,167694.333
2022-09-15T09:00:49.981Z,167694.333
2022-09-15T09:02:50.736Z,167694.333
2022-09-15T09:04:50.131Z,167694.333
2022-09-15T09:06:50.275Z,167694.333
2022-09-15T09:08:49.934Z,167694.333
2022-09-15T09:10:50.658Z,167694.333
2022-09-15T09:12:50.301Z,167694.333
2022-09-15T09:14:50.035Z,167694.333
2022-09-15T09:16:50.010Z,167694.333
2022-09-15T09:18:50.755Z,167694.333
2022-09-15T09:20:50.517Z,167694.333
2022-09-15T09:22:50.211Z,974.136
2022-09-15T09:24:50.213Z,974.144
2022-09-15T09:26:50.344Z,167694.333
2022-09-15T09:28:50.367Z,167694.333
2022-09-15T09:30:50.477Z,974.187
2022-09-15T09:32:50.412Z,974.190
2022-09-15T09:34:50.732Z,974.153
2022-09-15T09:36:50.623Z,974.145
2022-09-15T09:38:50.611Z,974.167
2022-09-15T09:40:50.329Z,974.222
2022-09-15T09:42:50.080Z,974.232
2022-09-15T09:44:49.828Z,974.251
2022-09-15T09:46:49.917Z,974.243
2022-09-15T09:48:49.866Z,974.229
2022-09-15T09:50:50.877Z,974.229
2022-09-15T09:52:50.563Z,974.232
2022-09-15T09:54:50.440Z,974.286
2022-09-15T09:56:50.628Z,974.215
2022-09-15T09:58:50.785Z,974.292
2022-09-15T10:00:50.434Z,974.307
2022-09-15T10:02:50.287Z,974.259
2022-09-15T10:04:50.875Z,974.214
2022-09-15T10:06:50.479Z,974.233
2022-09-15T10:08:50.814Z,974.240
2022-09-15T10:10:50.223Z,974.261
2022-09-15T10:12:50.241Z,974.250
2022-09-15T10:14:52.831Z,974.343
2022-09-15T10:16:50.109Z,974.305
2022-09-15T10:18:54.836Z,974.316
2022-09-15T10:20:50.741Z,974.294
2022-09-15T10:22:50.576Z,974.302
2022-09-15T10:24:50.434Z,974.295
2022-09-15T10:26:50.419Z,974.376
2022-09-15T10:28:50.275Z,974.355
2022-09-15T10:30:50.065Z,974.360
2022-09-15T10:32:50.120Z,974.336
2022-09-15T10:34:50.671Z,974.354
2022-09-15T10:36:49.953Z,974.299
2022-09-15T10:38:50.774Z,974.288
2022-09-15T10:40:49.941Z,974.318
2022-09-15T10:42:50.650Z,974.343
2022-09-15T10:44:50.509Z,974.355
2022-09-15T10:46:50.700Z,974.431
2022-09-15T10:48:50.431Z,974.404
2022-09-15T10:50:50.344Z,974.430
2022-09-15T10:52:50.196Z,974.421
2022-09-15T10:54:49.932Z,974.362
2022-09-15T10:56:50.238Z,974.362
2022-09-15T10:58:50.157Z,974.317
2022-09-15T11:00:50.189Z,974.323
2022-09-15T11:02:50.227Z,974.275
2022-09-15T11:04:50.539Z,974.256
2022-09-15T11:06:50.642Z,974.270
2022-09-15T11:08:50.539Z,974.328
2022-09-15T11:10:50.780Z,974.325
2022-09-15T11:12:50.571Z,974.342
2022-09-15T11:14:50.318Z,974.342
2022-09-15T11:16:50.570Z,974.315
2022-09-15T11:18:50.530Z,974.324
2022-09-15T11:20:50.393Z,974.317
2022-09-15T11:22:50.211Z,974.243
2022-09-15T11:24:50.079Z,974.315
2022-09-15T11:26:50.291Z,974.320
2022-09-15T11:28:50.279Z,974.309
2022-09-15T11:30:50.132Z,974.360
2022-09-15T11:32:58.279Z,974.379
2022-09-15T11:34:49.817Z,974.442
2022-09-15T11:36:50.048Z,974.442
2022-09-15T11:38:50.475Z,974.445
2022-09-15T11:40:50.399Z,974.506
2022-09-15T11:42:50.241Z,974.493
2022-09-15T11:44:50.076Z,974.446
2022-09-15T11:46:50.309Z,974.442
2022-09-15T11:48:50.571Z,974.473
2022-09-15T11:50:50.379Z,974.515
2022-09-15T11:52:50.248Z,974.498
2022-09-15T11:54:50.118Z,974.473
2022-09-15T11:56:50.231Z,974.426
2022-09-15T11:58:50.207Z,974.453
2022-09-15T12:00:50.055Z,974.481
2022-09-15T12:02:50.273Z,974.434
2022-09-15T12:04:50.561Z,974.470
2022-09-15T12:06:49.989Z,974.441
2022-09-15T12:08:50.083Z,974.451
2022-09-15T12:10:50.029Z,974.481
2022-09-15T12:12:50.036Z,974.478
2022-09-15T12:14:49.851Z,974.499
2022-09-15T12:16:49.893Z,974.559
2022-09-15T12:18:49.842Z,974.553
2022-09-15T12:20:50.606Z,974.581
2022-09-15T12:22:50.651Z,974.543
2022-09-15T12:24:49.822Z,974.535
2022-09-15T12:26:50.148Z,974.555
2022-09-15T12:28:49.962Z,974.572
2022-09-15T12:30:51.035Z,974.581
2022-09-15T12:32:50.056Z,974.559
2022-09-15T12:34:50.727Z,974.602
2022-09-15T12:36:50.113Z,974.601
2022-09-15T12:38:50.051Z,974.623
2022-09-15T12:40:49.975Z,974.616
2022-09-15T12:42:50.736Z,974.567
2022-09-15T12:44:50.596Z,974.629
2022-09-15T12:46:50.064Z,974.699
2022-09-15T12:48:49.889Z,974.677
2022-09-15T12:50:49.962Z,974.708
2022-09-15T12:52:49.896Z,974.692
2022-09-15T12:54:49.913Z,974.701
2022-09-15T12:56:50.203Z,974.695
2022-09-15T12:58:50.098Z,974.707
2022-09-15T13:01:17.846Z,974.739
2022-09-15T13:02:50.648Z,974.739
2022-09-15T13:04:49.962Z,974.741
2022-09-15T13:06:50.539Z,974.763
2022-09-15T13:08:50.585Z,974.852
2022-09-15T13:10:50.596Z,974.800
2022-09-15T13:12:50.528Z,974.770
2022-09-15T13:14:50.447Z,974.830
2022-09-15T13:16:50.728Z,974.848
2022-09-15T13:18:49.898Z,974.832
2022-09-15T13:20:50.663Z,974.790
2022-09-15T13:22:50.650Z,974.790
2022-09-15T13:24:50.481Z,974.764
2022-09-15T13:26:49.990Z,974.786
2022-09-15T13:28:56.690Z,974.765
2022-09-15T13:30:50.744Z,974.759
2022-09-15T13:32:50.770Z,974.747
2022-09-15T13:35:12.649Z,974.778
2022-09-15T13:38:49.899Z,974.737
2022-09-15T13:40:49.798Z,974.751
2022-09-15T13:42:50.684Z,974.690
2022-09-15T13:44:50.640Z,974.627
2022-09-15T13:46:49.795Z,974.634
2022-09-15T13:48:50.643Z,974.652
2022-09-15T13:50:50.437Z,974.586
2022-09-15T13:52:50.427Z,974.598
2022-09-15T13:54:50.417Z,974.592
2022-09-15T13:56:50.640Z,974.598
2022-09-15T13:59:11.085Z,974.567
2022-09-15T14:00:50.682Z,974.591
2022-09-15T14:02:49.833Z,974.621
2022-09-15T14:04:50.183Z,974.615
2022-09-15T14:06:50.304Z,974.683
2022-09-15T14:08:50.127Z,974.626
2022-09-15T14:10:49.957Z,974.619
2022-09-15T14:12:49.793Z,974.572
2022-09-15T14:14:50.603Z,974.555
2022-09-15T14:16:50.841Z,974.574
2022-09-15T14:18:49.916Z,974.482
2022-09-15T14:20:49.962Z,974.534
2022-09-15T14:22:49.822Z,974.480
2022-09-15T14:24:50.572Z,974.531
2022-09-15T14:26:49.856Z,974.616
2022-09-15T14:28:50.742Z,974.663
2022-09-15T14:30:50.474Z,974.627
2022-09-15T14:32:50.366Z,974.686
2022-09-15T14:34:50.608Z,974.601
2022-09-15T14:36:50.776Z,974.634
2022-09-15T14:38:49.823Z,974.658
2022-09-15T14:40:49.933Z,974.631
2022-09-15T14:42:50.703Z,974.702
2022-09-15T14:46:50.700Z,974.700
2022-09-15T14:48:50.696Z,974.687
2022-09-15T14:50:50.479Z,974.700
2022-09-15T14:52:50.214Z,974.716
2022-09-15T14:54:50.160Z,974.707
2022-09-15T14:56:50.148Z,974.683
2022-09-15T14:58:50.176Z,974.668
2022-09-15T15:00:50.157Z,974.703
2022-09-15T15:02:50.105Z,974.662
2022-09-15T15:04:50.579Z,974.732
2022-09-15T15:06:50.792Z,974.694
2022-09-15T15:08:50.758Z,974.777
2022-09-15T15:10:49.795Z,974.681
2022-09-15T15:12:50.605Z,974.728
2022-09-15T15:14:50.497Z,974.686
2022-09-15T15:16:50.886Z,974.762
2022-09-15T15:18:50.037Z,974.767
2022-09-15T15:20:49.894Z,974.726
2022-09-15T15:22:49.980Z,974.836
2022-09-15T15:24:49.808Z,974.825
2022-09-15T15:26:50.043Z,974.826
2022-09-15T15:28:49.971Z,974.857
2022-09-15T15:30:49.919Z,974.885
2022-09-15T15:32:50.659Z,974.894
2022-09-15T15:34:49.783Z,974.941
2022-09-15T15:36:49.908Z,974.954
2022-09-15T15:38:49.923Z,974.940
2022-09-15T15:40:50.611Z,974.977
2022-09-15T15:42:50.405Z,975.025
2022-09-15T15:44:50.182Z,975.059
2022-09-15T15:46:50.491Z,975.064
2022-09-15T15:48:50.501Z,975.052
2022-09-15T15:50:50.447Z,975.094
2022-09-15T15:52:50.209Z,975.070
2022-09-15T15:54:50.084Z,975.082
2022-09-15T15:56:50.310Z,975.098
2022-09-15T15:58:50.181Z,975.090
2022-09-15T16:00:50.246Z,975.085
2022-09-15T16:02:50.121Z,975.134
2022-09-15T16:04:50.367Z,975.101
2022-09-15T16:06:50.684Z,975.098
2022-09-15T16:08:50.371Z,975.091
2022-09-15T16:10:50.243Z,975.112
2022-09-15T16:12:50.078Z,975.097
2022-09-15T16:14:50.002Z,975.117
2022-09-15T16:16:50.339Z,975.132
2022-09-15T16:18:50.224Z,975.110
2022-09-15T16:20:50.020Z,975.157
2022-09-15T16:22:49.847Z,975.165
2022-09-15T16:24:50.549Z,975.156
2022-09-15T16:26:54.149Z,975.110
2022-09-15T16:28:49.914Z,975.191
2022-09-15T16:30:50.643Z,975.154
2022-09-15T16:32:50.682Z,975.254
2022-09-15T16:34:49.897Z,975.290
2022-09-15T16:36:50.104Z,975.317
2022-09-15T16:38:49.999Z,975.311
2022-09-15T16:40:49.847Z,975.387
2022-09-15T16:42:49.889Z,975.388
2022-09-15T16:44:50.679Z,975.428
2022-09-15T16:46:50.112Z,975.497
2022-09-15T16:48:50.240Z,975.459
2022-09-15T16:51:23.285Z,975.563
2022-09-15T16:52:50.194Z,975.566
2022-09-15T16:54:50.115Z,975.534
2022-09-15T16:56:50.188Z,975.545
2022-09-15T16:58:50.282Z,975.568
2022-09-15T17:00:50.263Z,975.577
2022-09-15T17:02:50.310Z,975.612
2022-09-15T17:04:50.689Z,975.631
2022-09-15T17:06:50.774Z,975.744
2022-09-15T17:08:50.725Z,975.742
2022-09-15T17:10:50.443Z,975.779
2022-09-15T17:12:50.367Z,975.780
2022-09-15T17:14:50.231Z,975.794
2022-09-15T17:16:50.568Z,975.807
2022-09-15T17:18:50.469Z,975.828
2022-09-15T17:20:50.284Z,975.902
2022-09-15T17:22:50.213Z,975.909
2022-09-15T17:24:50.229Z,975.965
2022-09-15T17:26:50.422Z,975.918
2022-09-15T17:28:50.189Z,975.961
2022-09-15T17:30:50.170Z,975.989
2022-09-15T17:32:50.225Z,975.966
2022-09-15T17:34:50.811Z,976.032
2022-09-15T17:36:49.854Z,976.026
2022-09-15T17:38:50.490Z,976.074
2022-09-15T17:40:50.379Z,976.074
2022-09-15T17:42:50.477Z,976.008
2022-09-15T17:44:50.206Z,975.998
2022-09-15T17:46:50.827Z,976.043
2022-09-15T17:48:49.829Z,976.022
2022-09-15T17:50:50.706Z,976.031
2022-09-15T17:52:50.641Z,975.994
2022-09-15T17:54:50.575Z,975.975
2022-09-15T17:56:49.901Z,975.946
2022-09-15T17:58:49.861Z,975.979
2022-09-15T18:00:49.859Z,976.013
2022-09-15T18:02:51.002Z,976.046
2022-09-15T18:04:50.436Z,976.139
2022-09-15T18:06:50.688Z,976.194
2022-09-15T18:08:50.565Z,976.196
2022-09-15T18:10:50.395Z,976.193
2022-09-15T18:12:55.890Z,976.231
2022-09-15T18:14:50.646Z,976.230
2022-09-15T18:16:50.664Z,976.248
2022-09-15T18:18:50.558Z,976.232
2022-09-15T18:20:50.337Z,976.220
2022-09-15T18:22:50.175Z,976.219
2022-09-15T18:24:49.967Z,976.184
2022-09-15T18:26:50.176Z,976.230
2022-09-15T18:28:50.044Z,976.246
2022-09-15T18:30:50.662Z,976.192
2022-09-15T18:32:50.619Z,976.275
2022-09-15T18:34:49.945Z,976.363
2022-09-15T18:36:50.251Z,976.396
2022-09-15T18:38:50.398Z,976.358
2022-09-15T18:40:50.117Z,976.419
2022-09-15T18:42:49.984Z,976.397
2022-09-15T18:44:49.853Z,976.430
2022-09-15T18:46:50.018Z,976.452
2022-09-15T18:48:50.040Z,976.505
2022-09-15T18:50:49.808Z,976.439
2022-09-15T18:52:50.614Z,976.472
2022-09-15T18:54:50.503Z,976.554
2022-09-15T18:56:50.050Z,976.579
2022-09-15T18:58:49.822Z,976.622
2022-09-15T19:00:50.631Z,976.640
2022-09-15T19:02:50.336Z,976.636
2022-09-15T19:04:50.041Z,976.613
2022-09-15T19:06:50.342Z,976.631
2022-09-15T19:08:50.051Z,976.658
2022-09-15T19:10:49.988Z,976.638
2022-09-15T19:12:49.821Z,976.639
2022-09-15T19:14:49.837Z,976.658
2022-09-15T19:16:58.857Z,976.637
2022-09-15T19:18:49.870Z,976.654
2022-09-15T19:20:49.821Z,976.666
2022-09-15T19:22:50.736Z,976.618
2022-09-15T19:24:50.637Z,976.644
2022-09-15T19:26:49.828Z,976.641
2022-09-15T19:28:50.642Z,976.596
2022-09-15T19:30:50.589Z,976.640
2022-09-15T19:32:50.598Z,976.646
2022-09-15T19:34:49.828Z,976.640
2022-09-15T19:36:50.035Z,976.668
2022-09-15T19:38:50.014Z,976.705
2022-09-15T19:40:50.162Z,976.706
2022-09-15T19:42:49.879Z,976.711
2022-09-15T19:44:50.531Z,976.739
2022-09-15T19:46:49.831Z,976.708
2022-09-15T19:48:50.658Z,976.668
2022-09-15T19:50:50.043Z,976.647
2022-09-15T19:52:49.834Z,976.691
2022-09-15T19:54:50.572Z,976.716
2022-09-15T19:56:49.917Z,976.698
2022-09-15T19:58:50.037Z,976.665
2022-09-15T20:00:50.099Z,976.737
2022-09-15T20:02:49.962Z,976.732
2022-09-15T20:04:50.342Z,976.743
2022-09-15T20:06:50.545Z,976.809
2022-09-15T20:08:50.454Z,976.818
2022-09-15T20:10:50.583Z,976.856
2022-09-15T20:12:50.446Z,976.844
2022-09-15T20:14:50.335Z,976.800
2022-09-15T20:16:50.774Z,976.803
2022-09-15T20:18:49.861Z,976.851
2022-09-15T20:20:50.759Z,976.854
2022-09-15T20:22:50.495Z,976.882
2022-09-15T20:24:50.631Z,976.907
2022-09-15T20:26:49.852Z,976.914
2022-09-15T20:28:49.901Z,976.977
2022-09-15T20:30:50.960Z,976.949
2022-09-15T20:32:50.766Z,976.975
2022-09-15T20:34:50.088Z,977.031
2022-09-15T20:36:50.179Z,977.021
2022-09-15T20:38:50.195Z,977.018
2022-09-15T20:40:50.169Z,977.040
2022-09-15T20:42:50.382Z,977.002
2022-09-15T20:44:50.386Z,976.978
2022-09-15T20:46:50.692Z,976.994
2022-09-15T20:48:50.600Z,977.011
2022-09-15T20:50:50.639Z,977.019
2022-09-15T20:52:50.665Z,976.986
2022-09-15T20:54:50.538Z,977.002
2022-09-15T20:56:50.739Z,976.989
2022-09-15T20:58:49.964Z,976.996
2022-09-15T21:00:50.301Z,976.980
2022-09-15T21:02:50.395Z,976.918
2022-09-15T21:04:50.663Z,976.891
2022-09-15T21:06:50.198Z,976.908
2022-09-15T21:08:50.297Z,976.881
2022-09-15T21:10:50.171Z,976.913
2022-09-15T21:12:50.056Z,976.885
2022-09-15T21:14:50.139Z,976.942
2022-09-15T21:16:50.528Z,976.895
2022-09-15T21:18:50.573Z,976.867
2022-09-15T21:20:50.546Z,976.920
2022-09-15T21:22:50.493Z,976.909
2022-09-15T21:24:50.631Z,976.942
2022-09-15T21:26:50.155Z,976.946
2022-09-15T21:28:50.227Z,976.968
2022-09-15T21:30:50.176Z,976.974
2022-09-15T21:32:49.988Z,977.001
2022-09-15T21:34:50.355Z,977.025
2022-09-15T21:36:50.476Z,977.045
2022-09-15T21:38:50.344Z,977.073
2022-09-15T21:40:50.257Z,977.112
2022-09-15T21:42:50.123Z,977.090
2022-09-15T21:44:49.872Z,977.165
2022-09-15T21:46:49.866Z,977.156
2022-09-15T21:48:50.722Z,977.126
2022-09-15T21:50:50.684Z,977.080
2022-09-15T21:52:50.613Z,977.067
2022-09-15T21:54:50.726Z,977.056
2022-09-15T21:56:49.832Z,977.009
2022-09-15T21:58:49.827Z,976.941
2022-09-15T22:00:51.016Z,976.969
2022-09-15T22:02:50.081Z,976.948
2022-09-15T22:04:50.264Z,976.989
2022-09-15T22:06:50.409Z,976.984
2022-09-15T22:08:50.540Z,976.965
2022-09-15T22:10:50.484Z,976.980
2022-09-15T22:12:50.658Z,977.019
2022-09-15T22:14:50.668Z,977.012
2022-09-15T22:16:50.161Z,977.038
2022-09-15T22:18:50.310Z,977.062
2022-09-15T22:20:50.279Z,977.131
2022-09-15T22:22:50.111Z,977.119
2022-09-15T22:24:49.942Z,977.163
2022-09-15T22:26:50.294Z,977.151
2022-09-15T22:28:50.189Z,977.138
2022-09-15T22:30:50.149Z,977.166
2022-09-15T22:32:49.935Z,977.171
2022-09-15T22:34:50.396Z,977.185
2022-09-15T22:36:49.893Z,977.165
2022-09-15T22:38:50.733Z,977.108
2022-09-15T22:40:50.794Z,977.117
2022-09-15T22:42:50.726Z,977.159
2022-09-15T22:44:50.618Z,977.159
2022-09-15T22:46:50.050Z,977.138
2022-09-15T22:48:50.699Z,977.116
2022-09-15T22:50:50.641Z,977.114
2022-09-15T22:52:50.673Z,977.045
2022-09-15T22:54:50.340Z,977.041
2022-09-15T22:56:49.830Z,977.052
2022-09-15T22:58:50.599Z,977.142
2022-09-15T23:00:50.754Z,977.133
2022-09-15T23:02:50.630Z,977.134
2022-09-15T23:04:50.120Z,977.139
2022-09-15T23:06:50.319Z,977.221
2022-09-15T23:08:50.375Z,977.226
2022-09-15T23:10:50.212Z,977.165
2022-09-15T23:12:50.031Z,977.176
2022-09-15T23:14:50.754Z,977.164
2022-09-15T23:16:50.027Z,977.164
2022-09-15T23:18:50.039Z,977.254
2022-09-15T23:20:49.940Z,977.220
2022-09-15T23:22:49.795Z,977.205
2022-09-15T23:24:50.681Z,977.186
2022-09-15T23:26:50.707Z,977.213
2022-09-15T23:28:50.362Z,977.248
2022-09-15T23:30:50.290Z,977.250
2022-09-15T23:32:50.378Z,977.252
2022-09-15T23:34:49.924Z,977.278
2022-09-15T23:36:50.278Z,977.255
2022-09-15T23:38:50.118Z,977.227
2022-09-15T23:40:49.931Z,977.221
2022-09-15T23:42:49.841Z,977.214
2022-09-15T23:44:50.615Z,977.191
2022-09-15T23:46:50.099Z,977.151
2022-09-15T23:48:50.118Z,977.147
2022-09-15T23:50:49.863Z,977.170
2022-09-15T23:52:49.812Z,977.155
2022-09-15T23:54:50.624Z,977.191
2022-09-15T23:56:50.801Z,977.069
2022-09-15T23:58:50.708Z,977.097
